X  Sluiten METAR luchtvaart weer gegevens      EBAW Antwerp International Airport (Deurne)
Temperatuur
14°C Temperatuur
9°C Dauwpunt
72% Vochtigheid



Wind
19 KM/U
12 MPH
5 M/S
10 KTS



260°
West
Huidig weer

Veel verspreide wolken Veel verspreide wolken
Luchtdruk 1018.92 (hPa) - 30.09 (inHg)
Zicht 6.2 (mijl) - 10 (km)
Vliegveld
Vliegveld code EBAW

Locatie : Antwerp International Airport (Deurne)
Afstand: 90 (km)

Metar:
EBAW 201850Z 26010KT 9999 SCT033 14/09 Q1019 NOSIG

Tijd: 20-05-2022 20:50 CEST